createdAt,value
2023-05-26T00:00:49.880Z,80.07
2023-05-26T00:03:18.276Z,80.80
2023-05-26T00:05:46.067Z,81.62
2023-05-26T00:08:12.861Z,81.30
2023-05-26T00:10:39.438Z,81.55
2023-05-26T00:13:06.007Z,81.75
2023-05-26T00:15:32.553Z,81.13
2023-05-26T00:17:59.375Z,81.78
2023-05-26T00:20:26.770Z,81.46
2023-05-26T00:22:53.356Z,81.49
2023-05-26T00:25:19.988Z,81.86
2023-05-26T00:27:46.485Z,81.47
2023-05-26T00:30:13.253Z,81.45
2023-05-26T00:32:39.861Z,81.45
2023-05-26T00:35:06.668Z,81.29
2023-05-26T00:37:33.724Z,81.08
2023-05-26T00:40:00.362Z,80.60
2023-05-26T00:42:26.943Z,81.23
2023-05-26T00:44:53.450Z,80.89
2023-05-26T00:47:20.420Z,81.17
2023-05-26T00:49:47.012Z,81.58
2023-05-26T00:52:13.529Z,81.98
2023-05-26T00:54:41.005Z,82.20
2023-05-26T00:57:08.085Z,81.96
2023-05-26T00:59:34.900Z,81.49
2023-05-26T01:02:01.473Z,81.28
2023-05-26T01:04:28.314Z,80.44
2023-05-26T01:06:56.426Z,81.28
2023-05-26T01:09:23.019Z,82.56
2023-05-26T01:11:57.989Z,82.62
2023-05-26T01:14:35.251Z,81.66
2023-05-26T01:17:08.602Z,83.03
2023-05-26T01:20:00.275Z,82.89
2023-05-26T01:22:49.877Z,83.73
2023-05-26T01:25:18.803Z,83.38
2023-05-26T01:27:47.997Z,84.54
2023-05-26T01:30:14.877Z,83.19
2023-05-26T01:32:48.818Z,83.16
2023-05-26T01:35:15.948Z,82.35
2023-05-26T01:37:42.995Z,82.55
2023-05-26T01:40:10.416Z,82.79
2023-05-26T01:42:39.835Z,82.40
2023-05-26T01:45:07.936Z,82.33
2023-05-26T01:47:34.595Z,82.58
2023-05-26T01:50:02.958Z,81.71
2023-05-26T01:52:29.514Z,79.89
2023-05-26T01:55:01.044Z,80.63
2023-05-26T01:57:27.597Z,82.91
2023-05-26T01:59:54.162Z,83.41
2023-05-26T02:02:20.797Z,80.87
2023-05-26T02:04:47.294Z,81.38
2023-05-26T02:07:13.851Z,81.01
2023-05-26T02:09:40.829Z,78.42
2023-05-26T02:12:07.698Z,79.24
2023-05-26T02:14:34.317Z,76.92
2023-05-26T02:17:00.907Z,76.69
2023-05-26T02:19:27.602Z,74.35
2023-05-26T02:21:54.084Z,73.82
2023-05-26T02:24:21.783Z,73.34
2023-05-26T02:26:48.291Z,73.41
2023-05-26T02:29:14.813Z,72.92
2023-05-26T02:31:43.012Z,73.64
2023-05-26T02:34:11.339Z,73.83
2023-05-26T02:36:37.927Z,72.83
2023-05-26T02:39:05.048Z,72.94
2023-05-26T02:41:31.598Z,72.02
2023-05-26T02:43:58.154Z,72.54
2023-05-26T02:46:25.526Z,72.56
2023-05-26T02:48:52.183Z,72.39
2023-05-26T02:51:18.700Z,71.71
2023-05-26T02:53:45.404Z,72.40
2023-05-26T02:56:11.949Z,72.98
2023-05-26T02:58:38.485Z,72.54
2023-05-26T03:01:05.224Z,71.88
2023-05-26T03:03:31.909Z,73.32
2023-05-26T03:05:59.799Z,72.59
2023-05-26T03:08:26.458Z,73.41
2023-05-26T03:11:10.044Z,71.98
2023-05-26T03:13:37.966Z,73.24
2023-05-26T03:16:04.707Z,72.39
2023-05-26T03:18:31.427Z,71.37
2023-05-26T03:20:59.676Z,72.06
2023-05-26T03:23:26.210Z,72.06
2023-05-26T03:25:52.739Z,71.65
2023-05-26T03:28:19.774Z,72.87
2023-05-26T03:30:46.282Z,72.79
2023-05-26T03:33:12.837Z,73.17
2023-05-26T03:35:39.417Z,72.10
2023-05-26T03:38:05.949Z,72.72
2023-05-26T03:40:32.522Z,74.24
2023-05-26T03:42:59.198Z,73.71
2023-05-26T03:45:25.925Z,72.77
2023-05-26T03:47:52.424Z,72.65
2023-05-26T03:50:19.050Z,74.03
2023-05-26T03:52:45.585Z,72.78
2023-05-26T03:55:12.255Z,72.95
2023-05-26T03:57:39.345Z,73.04
2023-05-26T04:00:08.975Z,73.53
2023-05-26T04:02:35.830Z,72.92
2023-05-26T04:05:03.100Z,73.28
2023-05-26T04:07:29.966Z,73.79
2023-05-26T04:09:56.461Z,73.62
2023-05-26T04:12:23.890Z,75.08
2023-05-26T04:14:50.449Z,73.92
2023-05-26T04:17:16.949Z,74.41
2023-05-26T04:19:43.462Z,74.35
2023-05-26T04:22:10.004Z,74.51
2023-05-26T04:24:36.667Z,75.69
2023-05-26T04:27:03.253Z,75.02
2023-05-26T04:29:30.725Z,74.73
2023-05-26T04:31:57.335Z,75.54
2023-05-26T04:34:25.201Z,75.47
2023-05-26T04:36:51.848Z,75.43
2023-05-26T04:39:18.443Z,75.47
2023-05-26T04:41:45.890Z,74.73
2023-05-26T04:44:12.897Z,75.13
2023-05-26T04:46:39.992Z,75.40
2023-05-26T04:49:08.650Z,75.45
2023-05-26T04:51:35.229Z,75.63
2023-05-26T04:54:01.773Z,75.45
2023-05-26T04:56:28.587Z,75.62
2023-05-26T04:58:57.110Z,74.20
2023-05-26T05:01:23.681Z,73.87
2023-05-26T05:03:50.404Z,73.85
2023-05-26T05:06:16.990Z,73.31
2023-05-26T05:08:43.773Z,73.56
2023-05-26T05:11:10.327Z,73.75
2023-05-26T05:13:36.907Z,72.80
2023-05-26T05:16:04.616Z,72.81
2023-05-26T05:18:31.380Z,71.96
2023-05-26T05:20:58.391Z,72.30
2023-05-26T05:23:24.985Z,72.15
2023-05-26T05:25:51.713Z,71.36
2023-05-26T05:28:18.570Z,72.29
2023-05-26T05:30:46.437Z,71.66
2023-05-26T05:33:13.413Z,70.91
2023-05-26T05:35:40.030Z,70.88
2023-05-26T05:38:06.637Z,71.60
2023-05-26T05:40:33.300Z,70.02
2023-05-26T05:42:59.833Z,70.81
2023-05-26T05:45:26.359Z,70.08
2023-05-26T05:47:52.960Z,69.10
2023-05-26T05:50:19.549Z,69.94
2023-05-26T05:52:46.102Z,69.93
2023-05-26T05:55:13.157Z,69.69
2023-05-26T05:57:39.702Z,69.10
2023-05-26T06:00:06.837Z,67.75
2023-05-26T06:02:33.528Z,68.64
2023-05-26T06:05:03.359Z,68.29
2023-05-26T06:07:30.905Z,67.68
2023-05-26T06:09:58.304Z,67.33
2023-05-26T06:12:24.994Z,67.60
2023-05-26T06:14:51.475Z,67.29
2023-05-26T06:17:18.062Z,67.01
2023-05-26T06:19:44.663Z,66.70
2023-05-26T06:22:11.220Z,66.06
2023-05-26T06:24:37.762Z,67.00
2023-05-26T06:27:05.217Z,65.85
2023-05-26T06:29:31.722Z,66.42
2023-05-26T06:31:58.293Z,66.63
2023-05-26T06:34:24.806Z,64.35
2023-05-26T06:36:52.152Z,64.69
2023-05-26T06:39:19.096Z,64.36
2023-05-26T06:41:45.707Z,64.05
2023-05-26T06:44:12.402Z,64.29
2023-05-26T06:46:39.184Z,64.34
2023-05-26T06:49:05.767Z,64.08
2023-05-26T06:51:32.276Z,64.71
2023-05-26T06:53:58.904Z,63.14
2023-05-26T06:56:27.211Z,63.29
2023-05-26T06:58:54.127Z,62.84
2023-05-26T07:01:20.778Z,62.70
2023-05-26T07:03:47.448Z,62.68
2023-05-26T07:06:14.025Z,62.50
2023-05-26T07:08:40.688Z,63.42
2023-05-26T07:11:08.032Z,62.72
2023-05-26T07:13:34.572Z,62.32
2023-05-26T07:16:01.165Z,62.89
2023-05-26T07:18:27.801Z,62.02
2023-05-26T07:20:54.471Z,60.79
2023-05-26T07:23:21.214Z,61.57
2023-05-26T07:25:47.723Z,62.24
2023-05-26T07:28:14.260Z,61.58
2023-05-26T07:30:41.127Z,60.74
2023-05-26T07:33:07.759Z,60.74
2023-05-26T07:35:34.341Z,59.28
2023-05-26T07:38:00.956Z,60.15
2023-05-26T07:40:30.232Z,59.84
2023-05-26T07:42:56.740Z,59.60
2023-05-26T07:45:23.439Z,59.70
2023-05-26T07:47:50.138Z,57.93
2023-05-26T07:50:16.723Z,58.52
2023-05-26T07:52:43.504Z,58.59
2023-05-26T07:55:09.994Z,59.95
2023-05-26T07:57:36.622Z,59.03
2023-05-26T08:00:04.688Z,59.89
2023-05-26T08:02:31.272Z,57.29
2023-05-26T08:04:57.976Z,57.40
2023-05-26T08:07:24.612Z,56.42
2023-05-26T08:09:53.284Z,57.28
2023-05-26T08:12:19.856Z,56.75
2023-05-26T08:14:46.459Z,55.74
2023-05-26T08:17:12.957Z,55.16
2023-05-26T08:19:39.526Z,55.54
2023-05-26T08:22:06.396Z,55.74
2023-05-26T08:24:32.895Z,54.05
2023-05-26T08:26:59.418Z,54.54
2023-05-26T08:29:26.136Z,54.17
2023-05-26T08:31:52.667Z,55.88
2023-05-26T08:34:19.263Z,54.34
2023-05-26T08:36:47.026Z,54.26
2023-05-26T08:39:13.561Z,52.21
2023-05-26T08:42:07.131Z,53.35
2023-05-26T08:44:37.054Z,53.97
2023-05-26T08:47:04.051Z,51.93
2023-05-26T08:49:40.326Z,52.18
2023-05-26T08:52:09.699Z,52.17
2023-05-26T08:54:36.481Z,52.02
2023-05-26T08:57:04.007Z,52.87
2023-05-26T08:59:30.759Z,51.59
2023-05-26T09:01:57.711Z,51.07
2023-05-26T09:04:26.495Z,51.96
2023-05-26T09:07:08.692Z,50.31
2023-05-26T09:09:39.762Z,50.40
2023-05-26T09:12:10.334Z,50.61
2023-05-26T09:14:37.113Z,50.41
2023-05-26T09:17:03.788Z,51.80
2023-05-26T09:19:30.316Z,50.51
2023-05-26T09:21:56.841Z,48.67
2023-05-26T09:24:24.477Z,50.42
2023-05-26T09:26:51.686Z,48.92
2023-05-26T09:29:18.310Z,48.50
2023-05-26T09:31:51.146Z,48.19
2023-05-26T09:34:22.124Z,47.43
2023-05-26T09:36:49.368Z,47.13
2023-05-26T09:39:16.816Z,46.96
2023-05-26T09:41:45.151Z,47.73
2023-05-26T09:44:16.063Z,47.28
2023-05-26T09:46:43.879Z,46.25
2023-05-26T09:49:18.000Z,47.21
2023-05-26T09:51:48.767Z,46.54
2023-05-26T09:54:22.862Z,45.90
2023-05-26T09:57:02.471Z,45.85
2023-05-26T09:59:33.008Z,45.48
2023-05-26T10:02:00.247Z,45.96
2023-05-26T10:04:26.891Z,47.60
2023-05-26T10:06:53.861Z,45.21
2023-05-26T10:09:22.600Z,48.74
2023-05-26T10:14:16.674Z,50.05
2023-05-26T10:16:43.335Z,46.02
2023-05-26T10:19:09.942Z,45.39
2023-05-26T10:21:41.351Z,44.56
2023-05-26T10:24:11.788Z,43.23
2023-05-26T10:26:41.346Z,45.15
2023-05-26T10:29:09.004Z,46.37
2023-05-26T10:31:36.052Z,45.02
2023-05-26T10:34:15.545Z,45.71
2023-05-26T10:36:42.631Z,44.97
2023-05-26T10:39:12.494Z,48.69
2023-05-26T10:41:40.269Z,47.44
2023-05-26T10:44:06.970Z,49.01
2023-05-26T10:46:40.778Z,48.08
2023-05-26T10:49:20.293Z,49.41
2023-05-26T10:51:53.894Z,46.37
2023-05-26T10:54:22.375Z,45.75
2023-05-26T10:56:51.138Z,46.98
2023-05-26T10:59:31.344Z,45.66
2023-05-26T11:01:58.681Z,46.96
2023-05-26T11:04:25.866Z,46.39
2023-05-26T11:06:58.047Z,47.77
2023-05-26T11:09:25.437Z,45.76
2023-05-26T11:11:55.817Z,46.89
2023-05-26T11:14:23.862Z,46.43
2023-05-26T11:16:51.241Z,44.58
2023-05-26T11:19:27.526Z,44.58
2023-05-26T11:21:54.019Z,45.26
2023-05-26T11:24:20.903Z,45.69
2023-05-26T11:26:47.472Z,45.54
2023-05-26T11:29:13.981Z,45.90
2023-05-26T11:31:40.538Z,46.77
2023-05-26T11:34:07.217Z,46.47
2023-05-26T11:36:33.781Z,44.33
2023-05-26T11:39:01.506Z,42.89
2023-05-26T11:41:28.138Z,44.09
2023-05-26T11:43:54.888Z,42.13
2023-05-26T11:46:21.696Z,42.22
2023-05-26T11:48:48.319Z,44.53
2023-05-26T11:51:15.956Z,43.77
2023-05-26T11:53:43.424Z,43.95
2023-05-26T11:56:11.307Z,41.16
2023-05-26T11:58:42.358Z,39.31
2023-05-26T12:01:09.338Z,41.61
2023-05-26T12:03:41.963Z,41.65
2023-05-26T12:06:18.402Z,42.54
2023-05-26T12:08:47.717Z,41.67
2023-05-26T12:11:35.238Z,45.38
2023-05-26T12:14:03.601Z,41.72
2023-05-26T12:16:34.480Z,44.15
2023-05-26T12:19:04.001Z,46.22
2023-05-26T12:21:31.313Z,40.45
2023-05-26T12:23:58.396Z,42.66
2023-05-26T12:26:29.158Z,40.80
2023-05-26T12:29:05.247Z,41.37
2023-05-26T12:31:45.037Z,42.42
2023-05-26T12:34:13.884Z,43.05
2023-05-26T12:36:42.213Z,44.43
2023-05-26T12:39:09.846Z,40.53
2023-05-26T12:41:37.144Z,41.65
2023-05-26T12:44:03.837Z,40.72
2023-05-26T12:46:30.559Z,39.24
2023-05-26T12:48:58.427Z,39.37
2023-05-26T12:51:28.330Z,39.52
2023-05-26T12:53:55.126Z,46.84
2023-05-26T12:56:21.688Z,42.24
2023-05-26T12:58:49.027Z,43.06
2023-05-26T13:01:15.748Z,40.21
2023-05-26T13:03:42.923Z,39.29
2023-05-26T13:06:09.829Z,38.33
2023-05-26T13:08:36.618Z,41.58
2023-05-26T13:11:03.553Z,38.35
2023-05-26T13:13:30.602Z,42.91
2023-05-26T13:15:57.425Z,41.98
2023-05-26T13:18:24.063Z,38.76
2023-05-26T13:20:50.752Z,38.07
2023-05-26T13:23:17.491Z,41.09
2023-05-26T13:25:44.017Z,42.40
2023-05-26T13:28:10.554Z,39.32
2023-05-26T13:30:37.386Z,39.93
2023-05-26T13:33:05.384Z,39.67
2023-05-26T13:35:32.167Z,34.35
2023-05-26T13:37:58.821Z,36.11
2023-05-26T13:40:25.413Z,35.19
2023-05-26T13:42:52.166Z,36.88
2023-05-26T13:45:18.813Z,34.59
2023-05-26T13:47:45.374Z,33.77
2023-05-26T13:50:20.485Z,36.83
2023-05-26T13:52:47.758Z,34.28
2023-05-26T13:55:14.277Z,35.03
2023-05-26T13:57:40.836Z,32.57
2023-05-26T14:00:08.392Z,33.08
2023-05-26T14:02:35.198Z,34.33
2023-05-26T14:05:02.427Z,34.55
2023-05-26T14:07:29.019Z,35.43
2023-05-26T14:09:55.537Z,35.76
2023-05-26T14:12:22.096Z,35.00
2023-05-26T14:14:48.657Z,35.05
2023-05-26T14:17:15.317Z,32.86
2023-05-26T14:19:42.024Z,33.41
2023-05-26T14:22:16.555Z,35.24
2023-05-26T14:24:47.553Z,35.72
2023-05-26T14:27:14.236Z,32.02
2023-05-26T14:29:41.089Z,33.93
2023-05-26T14:32:07.729Z,30.93
2023-05-26T14:34:34.377Z,35.00
2023-05-26T14:37:01.212Z,30.95
2023-05-26T14:39:29.391Z,31.94
2023-05-26T14:41:56.127Z,31.63
2023-05-26T14:44:22.689Z,31.80
2023-05-26T14:46:49.274Z,32.22
2023-05-26T14:49:16.051Z,31.95
2023-05-26T14:51:42.685Z,31.57
2023-05-26T14:54:09.367Z,33.67
2023-05-26T14:56:36.174Z,31.11
2023-05-26T14:59:03.335Z,31.35
2023-05-26T15:01:29.979Z,34.55
2023-05-26T15:04:13.479Z,32.95
2023-05-26T15:06:41.440Z,34.12
2023-05-26T15:09:08.441Z,33.18
2023-05-26T15:11:35.382Z,33.25
2023-05-26T15:14:02.184Z,32.64
2023-05-26T15:16:28.852Z,33.05
2023-05-26T15:18:58.950Z,31.56
2023-05-26T15:21:29.743Z,31.34
2023-05-26T15:24:05.467Z,31.29
2023-05-26T15:26:33.736Z,31.05
2023-05-26T15:29:00.350Z,29.95
2023-05-26T15:31:26.914Z,31.41
2023-05-26T15:33:53.486Z,29.41
2023-05-26T15:36:23.735Z,29.86
2023-05-26T15:38:50.338Z,31.80
2023-05-26T15:41:17.311Z,29.41
2023-05-26T15:43:43.886Z,30.82
2023-05-26T15:46:10.522Z,30.89
2023-05-26T15:48:37.796Z,31.97
2023-05-26T15:51:04.656Z,32.28
2023-05-26T15:53:31.462Z,33.24
2023-05-26T15:56:00.703Z,32.67
2023-05-26T15:58:27.604Z,33.95
2023-05-26T16:00:54.285Z,32.89
2023-05-26T16:03:21.831Z,32.36
2023-05-26T16:05:48.421Z,32.71
2023-05-26T16:08:15.357Z,33.69
2023-05-26T16:10:41.962Z,33.38
2023-05-26T16:13:08.760Z,33.39
2023-05-26T16:15:35.347Z,32.63
2023-05-26T16:18:01.992Z,31.15
2023-05-26T16:20:28.598Z,31.46
2023-05-26T16:22:55.203Z,32.08
2023-05-26T16:25:21.763Z,32.46
2023-05-26T16:27:48.530Z,32.77
2023-05-26T16:30:15.140Z,31.36
2023-05-26T16:32:42.695Z,32.36
2023-05-26T16:35:10.169Z,32.33
2023-05-26T16:37:36.969Z,31.62
2023-05-26T16:40:07.106Z,31.51
2023-05-26T16:42:33.700Z,32.08
2023-05-26T16:45:00.251Z,30.91
2023-05-26T16:47:27.073Z,30.74
2023-05-26T16:49:53.727Z,33.73
2023-05-26T16:52:20.291Z,32.94
2023-05-26T16:54:46.797Z,33.00
2023-05-26T16:57:13.298Z,33.24
2023-05-26T16:59:39.872Z,33.86
2023-05-26T17:02:06.421Z,35.96
2023-05-26T17:04:32.984Z,34.83
2023-05-26T17:06:59.544Z,36.03
2023-05-26T17:09:26.084Z,36.00
2023-05-26T17:11:52.605Z,35.10
2023-05-26T17:14:19.162Z,36.08
2023-05-26T17:16:45.669Z,36.69
2023-05-26T17:19:12.245Z,37.85
2023-05-26T17:21:38.794Z,37.58
2023-05-26T17:24:05.452Z,37.08
2023-05-26T17:26:33.327Z,38.54
2023-05-26T17:28:59.933Z,40.25
2023-05-26T17:31:26.464Z,40.48
2023-05-26T17:33:53.015Z,41.00
2023-05-26T17:36:19.652Z,39.52
2023-05-26T17:38:46.426Z,40.44
2023-05-26T17:41:12.976Z,41.26
2023-05-26T17:43:39.797Z,40.96
2023-05-26T17:46:06.952Z,41.19
2023-05-26T17:48:33.542Z,40.79
2023-05-26T17:51:00.445Z,42.03
2023-05-26T17:53:27.482Z,42.47
2023-05-26T17:55:54.063Z,42.93
2023-05-26T17:58:20.715Z,42.91
2023-05-26T18:00:47.219Z,43.45
2023-05-26T18:03:14.111Z,42.64
2023-05-26T18:05:41.024Z,42.75
2023-05-26T18:08:07.668Z,42.96
2023-05-26T18:10:34.223Z,43.84
2023-05-26T18:13:01.184Z,43.19
2023-05-26T18:15:27.729Z,43.32
2023-05-26T18:17:54.412Z,43.91
2023-05-26T18:20:21.873Z,44.71
2023-05-26T18:22:50.859Z,44.73
2023-05-26T18:25:17.437Z,43.54
2023-05-26T18:27:44.069Z,45.16
2023-05-26T18:30:12.603Z,43.80
2023-05-26T18:32:39.155Z,45.19
2023-05-26T18:35:07.502Z,44.54
2023-05-26T18:37:34.017Z,45.13
2023-05-26T18:40:04.499Z,45.44
2023-05-26T18:42:31.725Z,45.87
2023-05-26T18:44:58.222Z,46.39
2023-05-26T18:47:25.224Z,46.18
2023-05-26T18:49:52.422Z,45.78
2023-05-26T18:52:18.979Z,46.80
2023-05-26T18:54:47.367Z,46.84
2023-05-26T18:57:14.032Z,46.78
2023-05-26T18:59:41.050Z,47.09
2023-05-26T19:02:08.027Z,47.87
2023-05-26T19:04:34.605Z,48.50
2023-05-26T19:07:01.112Z,48.47
2023-05-26T19:09:27.857Z,49.12
2023-05-26T19:11:54.597Z,48.92
2023-05-26T19:14:21.354Z,51.66
2023-05-26T19:16:48.151Z,52.33
2023-05-26T19:19:14.749Z,54.15
2023-05-26T19:21:41.310Z,55.82
2023-05-26T19:24:09.451Z,56.85
2023-05-26T19:26:36.158Z,58.14
2023-05-26T19:29:04.510Z,53.86
2023-05-26T19:31:32.007Z,54.56
2023-05-26T19:33:58.717Z,54.40
2023-05-26T19:36:28.889Z,54.01
2023-05-26T19:38:55.604Z,56.37
2023-05-26T19:41:22.691Z,56.56
2023-05-26T19:43:49.391Z,56.15
2023-05-26T19:46:15.897Z,57.76
2023-05-26T19:48:42.501Z,55.41
2023-05-26T19:51:11.210Z,52.65
2023-05-26T19:53:37.924Z,53.10
2023-05-26T19:56:04.623Z,52.33
2023-05-26T19:58:31.398Z,53.53
2023-05-26T20:00:57.989Z,52.84
2023-05-26T20:03:24.918Z,52.33
2023-05-26T20:05:51.486Z,52.60
2023-05-26T20:08:18.260Z,52.58
2023-05-26T20:10:44.917Z,52.84
2023-05-26T20:13:11.488Z,52.80
2023-05-26T20:15:38.064Z,53.28
2023-05-26T20:18:08.171Z,53.03
2023-05-26T20:20:35.216Z,53.40
2023-05-26T20:23:02.235Z,53.26
2023-05-26T20:25:28.860Z,52.97
2023-05-26T20:27:55.426Z,53.28
2023-05-26T20:30:22.404Z,53.27
2023-05-26T20:32:49.083Z,53.08
2023-05-26T20:35:15.667Z,54.78
2023-05-26T20:37:42.185Z,56.15
2023-05-26T20:40:15.442Z,57.30
2023-05-26T20:42:42.331Z,58.78
2023-05-26T20:45:09.133Z,58.31
2023-05-26T20:47:36.018Z,57.61
2023-05-26T20:50:03.085Z,57.62
2023-05-26T20:52:29.640Z,57.99
2023-05-26T20:54:56.202Z,58.31
2023-05-26T20:57:22.940Z,59.02
2023-05-26T20:59:49.480Z,60.11
2023-05-26T21:02:16.308Z,61.18
2023-05-26T21:04:42.929Z,60.92
2023-05-26T21:07:09.503Z,61.89
2023-05-26T21:09:36.101Z,60.85
2023-05-26T21:12:02.877Z,63.96
2023-05-26T21:14:30.087Z,63.73
2023-05-26T21:16:56.723Z,63.63
2023-05-26T21:19:23.246Z,62.18
2023-05-26T21:21:51.152Z,64.58
2023-05-26T21:24:17.849Z,64.93
2023-05-26T21:26:44.456Z,63.13
2023-05-26T21:29:11.196Z,64.29
2023-05-26T21:31:37.791Z,63.88
2023-05-26T21:34:04.498Z,65.90
2023-05-26T21:36:31.048Z,63.99
2023-05-26T21:38:57.657Z,65.01
2023-05-26T21:41:27.639Z,66.66
2023-05-26T21:43:54.165Z,65.56
2023-05-26T21:46:20.860Z,65.04
2023-05-26T21:48:47.423Z,65.82
2023-05-26T21:51:13.953Z,64.71
2023-05-26T21:53:40.574Z,63.96
2023-05-26T21:56:07.102Z,64.00
2023-05-26T21:58:33.757Z,66.43
2023-05-26T22:01:00.586Z,65.35
2023-05-26T22:03:27.922Z,64.02
2023-05-26T22:05:54.741Z,67.66
2023-05-26T22:08:21.573Z,65.72
2023-05-26T22:10:48.114Z,67.86
2023-05-26T22:13:14.634Z,69.59
2023-05-26T22:15:41.224Z,69.69
2023-05-26T22:18:07.816Z,68.85
2023-05-26T22:20:34.456Z,66.37
2023-05-26T22:23:01.091Z,68.12
2023-05-26T22:25:27.622Z,68.90
2023-05-26T22:27:54.234Z,66.76
2023-05-26T22:30:24.529Z,66.32
2023-05-26T22:32:51.614Z,69.15
2023-05-26T22:35:18.162Z,71.23
2023-05-26T22:37:44.690Z,72.77
2023-05-26T22:40:12.071Z,72.21
2023-05-26T22:42:38.602Z,72.71
2023-05-26T22:45:05.719Z,73.90
2023-05-26T22:47:32.318Z,73.21
2023-05-26T22:49:58.897Z,70.22
2023-05-26T22:52:27.121Z,67.14
2023-05-26T22:54:53.635Z,67.16
2023-05-26T22:57:20.332Z,66.04
2023-05-26T22:59:46.868Z,64.49
2023-05-26T23:02:13.572Z,66.47
2023-05-26T23:04:40.099Z,67.13
2023-05-26T23:07:06.729Z,67.90
2023-05-26T23:09:33.542Z,66.76
2023-05-26T23:12:00.120Z,67.73
2023-05-26T23:14:26.698Z,71.92
2023-05-26T23:16:53.226Z,71.47
2023-05-26T23:19:19.780Z,68.93
2023-05-26T23:21:46.380Z,68.98
2023-05-26T23:24:12.936Z,67.81
2023-05-26T23:26:39.425Z,66.51
2023-05-26T23:29:06.346Z,65.58
2023-05-26T23:31:32.900Z,65.10
2023-05-26T23:33:59.455Z,68.37
2023-05-26T23:36:26.285Z,70.14
2023-05-26T23:38:52.798Z,74.06
2023-05-26T23:41:19.326Z,71.41
2023-05-26T23:43:46.159Z,67.51
2023-05-26T23:46:12.733Z,70.84
2023-05-26T23:48:39.318Z,72.39
2023-05-26T23:51:06.167Z,71.64
2023-05-26T23:53:32.749Z,66.73
2023-05-26T23:55:59.354Z,65.56
2023-05-26T23:58:25.961Z,68.92
